createdAt,value
2016-12-23T00:00:52.186Z,0
2016-12-23T00:02:02.899Z,0
2016-12-23T00:03:13.619Z,0
2016-12-23T00:04:24.353Z,0
2016-12-23T00:05:35.061Z,0
2016-12-23T00:06:45.790Z,0
2016-12-23T00:07:56.490Z,0
2016-12-23T00:09:07.218Z,0
2016-12-23T00:10:17.973Z,0
2016-12-23T00:11:28.702Z,0
2016-12-23T00:12:39.448Z,0
2016-12-23T00:13:50.167Z,0
2016-12-23T00:15:00.890Z,0
2016-12-23T00:16:11.610Z,0
2016-12-23T00:17:22.325Z,0
2016-12-23T00:18:33.078Z,0
2016-12-23T00:19:43.818Z,0
2016-12-23T00:20:54.563Z,0
2016-12-23T00:22:05.294Z,0
2016-12-23T00:23:16.014Z,0
2016-12-23T00:24:26.733Z,0
2016-12-23T00:25:37.451Z,0
2016-12-23T00:26:48.172Z,0
2016-12-23T00:27:58.870Z,0
2016-12-23T00:29:09.607Z,0
2016-12-23T00:30:20.333Z,0
2016-12-23T00:31:31.062Z,0
2016-12-23T00:32:41.807Z,0
2016-12-23T00:33:52.527Z,0
2016-12-23T00:35:03.241Z,0
2016-12-23T00:36:14.283Z,0
2016-12-23T00:37:25.004Z,0
2016-12-23T00:38:35.758Z,0
2016-12-23T00:39:46.479Z,0
2016-12-23T00:40:57.200Z,0
2016-12-23T00:42:07.924Z,0
2016-12-23T00:43:18.638Z,0
2016-12-23T00:44:29.362Z,0
2016-12-23T00:45:40.086Z,0
2016-12-23T00:46:50.808Z,0
2016-12-23T00:48:01.543Z,0
2016-12-23T00:49:12.275Z,0
2016-12-23T00:50:22.984Z,0
2016-12-23T00:51:33.713Z,0
2016-12-23T00:52:44.434Z,0
2016-12-23T00:53:55.151Z,0
2016-12-23T00:55:05.857Z,0
2016-12-23T00:56:16.573Z,0
2016-12-23T00:57:27.321Z,0
2016-12-23T00:58:38.043Z,0
2016-12-23T00:59:48.736Z,0
2016-12-23T01:00:59.437Z,0
2016-12-23T01:02:10.135Z,0
2016-12-23T01:03:20.878Z,0
2016-12-23T01:04:31.597Z,0
2016-12-23T01:05:42.318Z,0
2016-12-23T01:06:53.016Z,0
2016-12-23T01:08:03.732Z,0
2016-12-23T01:09:14.433Z,0
2016-12-23T01:10:25.156Z,0
2016-12-23T01:11:35.897Z,0
2016-12-23T01:12:46.934Z,0
2016-12-23T01:13:57.641Z,0
2016-12-23T01:15:08.351Z,0
2016-12-23T01:16:19.075Z,0
2016-12-23T01:17:29.804Z,0
2016-12-23T01:18:40.543Z,0
2016-12-23T01:19:51.548Z,0
2016-12-23T01:21:02.288Z,0
2016-12-23T01:22:13.312Z,0
2016-12-23T01:23:24.037Z,0
2016-12-23T01:24:34.758Z,0
2016-12-23T01:25:45.475Z,0
2016-12-23T01:26:56.198Z,0
2016-12-23T01:28:06.919Z,0
2016-12-23T01:29:17.639Z,0
2016-12-23T01:30:28.381Z,0
2016-12-23T01:31:39.077Z,0
2016-12-23T01:32:49.774Z,0
2016-12-23T01:34:00.797Z,0
2016-12-23T01:35:11.498Z,0
2016-12-23T01:36:22.241Z,0
2016-12-23T01:37:32.979Z,0
2016-12-23T01:38:43.708Z,0
2016-12-23T01:39:54.443Z,0
2016-12-23T01:41:05.163Z,0
2016-12-23T01:42:15.892Z,0
2016-12-23T01:43:26.634Z,0
2016-12-23T01:44:37.663Z,0
2016-12-23T01:45:48.383Z,0
2016-12-23T01:46:59.119Z,0
2016-12-23T01:48:09.826Z,0
2016-12-23T01:49:20.546Z,0
2016-12-23T01:50:31.270Z,0
2016-12-23T01:51:42.040Z,0
2016-12-23T01:52:52.780Z,0
2016-12-23T01:54:03.543Z,0
2016-12-23T01:55:14.269Z,0
2016-12-23T01:56:24.993Z,0
2016-12-23T01:57:35.715Z,0
2016-12-23T01:58:46.411Z,0
2016-12-23T01:59:57.148Z,0
2016-12-23T02:01:07.853Z,0
2016-12-23T02:02:18.565Z,0
2016-12-23T02:03:29.315Z,0
2016-12-23T02:04:40.064Z,0
2016-12-23T02:05:50.816Z,0
2016-12-23T02:07:01.524Z,0
2016-12-23T02:08:12.257Z,0
2016-12-23T02:09:22.980Z,0
2016-12-23T02:10:33.719Z,0
2016-12-23T02:11:44.449Z,0
2016-12-23T02:12:55.182Z,0
2016-12-23T02:14:05.928Z,0
2016-12-23T02:15:16.663Z,0
2016-12-23T02:16:27.403Z,0
2016-12-23T02:17:38.124Z,0
2016-12-23T02:18:48.841Z,0
2016-12-23T02:19:59.542Z,0
2016-12-23T02:21:10.262Z,0
2016-12-23T02:22:20.974Z,0
2016-12-23T02:23:31.692Z,0
2016-12-23T02:24:42.417Z,0
2016-12-23T02:25:53.137Z,0
2016-12-23T02:27:03.840Z,0
2016-12-23T02:28:14.583Z,0
2016-12-23T02:29:25.296Z,0
2016-12-23T02:30:36.046Z,0
2016-12-23T02:31:46.789Z,0
2016-12-23T02:32:57.517Z,0
2016-12-23T02:34:08.242Z,0
2016-12-23T02:35:18.988Z,0
2016-12-23T02:36:29.723Z,0
2016-12-23T02:37:40.452Z,0
2016-12-23T02:38:51.165Z,0
2016-12-23T02:40:01.918Z,0
2016-12-23T02:41:12.672Z,0
2016-12-23T02:42:23.391Z,0
2016-12-23T02:43:34.090Z,0
2016-12-23T02:44:44.804Z,0
2016-12-23T02:45:55.524Z,0
2016-12-23T02:47:06.247Z,0
2016-12-23T02:48:16.986Z,0
2016-12-23T02:49:27.728Z,0
2016-12-23T02:50:38.427Z,0
2016-12-23T02:51:49.128Z,0
2016-12-23T02:52:59.841Z,0
2016-12-23T02:54:10.565Z,0
2016-12-23T02:55:21.295Z,0
2016-12-23T02:56:32.015Z,0
2016-12-23T02:57:42.758Z,0
2016-12-23T02:58:53.471Z,0
2016-12-23T03:00:04.196Z,0
2016-12-23T03:01:14.913Z,0
2016-12-23T03:02:25.659Z,0
2016-12-23T03:03:36.367Z,0
2016-12-23T03:04:47.105Z,0
2016-12-23T03:05:57.826Z,0
2016-12-23T03:07:08.572Z,0
2016-12-23T03:08:19.304Z,0
2016-12-23T03:09:30.027Z,0
2016-12-23T03:10:40.769Z,0
2016-12-23T03:11:51.486Z,0
2016-12-23T03:13:02.215Z,0
2016-12-23T03:14:12.936Z,0
2016-12-23T03:15:23.641Z,0
2016-12-23T03:16:34.369Z,0
2016-12-23T03:17:45.070Z,0
2016-12-23T03:18:55.806Z,0
2016-12-23T03:20:06.509Z,0
2016-12-23T03:21:17.252Z,0
2016-12-23T03:22:28.001Z,0
2016-12-23T03:23:38.720Z,0
2016-12-23T03:24:49.446Z,0
2016-12-23T03:26:00.194Z,0
2016-12-23T03:27:10.932Z,0
2016-12-23T03:28:21.678Z,0
2016-12-23T03:29:32.378Z,0
2016-12-23T03:30:43.102Z,0
2016-12-23T03:31:53.793Z,0
2016-12-23T03:33:04.534Z,0
2016-12-23T03:34:15.276Z,0
2016-12-23T03:35:26.005Z,0
2016-12-23T03:36:36.732Z,0
2016-12-23T03:37:47.455Z,0
2016-12-23T03:38:58.195Z,0
2016-12-23T03:40:08.894Z,0
2016-12-23T03:41:19.616Z,0
2016-12-23T03:42:30.309Z,0
2016-12-23T03:43:41.072Z,0
2016-12-23T03:44:51.806Z,0
2016-12-23T03:46:02.548Z,0
2016-12-23T03:47:13.294Z,0
2016-12-23T03:48:24.031Z,0
2016-12-23T03:49:34.782Z,0
2016-12-23T03:50:45.478Z,0
2016-12-23T03:51:56.205Z,0
2016-12-23T03:53:06.920Z,0
2016-12-23T03:54:17.644Z,0
2016-12-23T03:55:28.364Z,0
2016-12-23T03:56:39.075Z,0
2016-12-23T03:57:49.825Z,0
2016-12-23T03:59:00.530Z,0
2016-12-23T04:00:11.225Z,0
2016-12-23T04:01:21.937Z,0
2016-12-23T04:02:32.671Z,0
2016-12-23T04:03:43.418Z,0
2016-12-23T04:04:54.136Z,0
2016-12-23T04:06:04.829Z,0
2016-12-23T04:07:15.549Z,0
2016-12-23T04:08:26.273Z,0
2016-12-23T04:09:37.031Z,0
2016-12-23T04:10:47.738Z,0
2016-12-23T04:11:58.476Z,0
2016-12-23T04:13:09.222Z,0
2016-12-23T04:14:19.926Z,0
2016-12-23T04:15:30.636Z,0
2016-12-23T04:16:41.368Z,0
2016-12-23T04:17:52.090Z,0
2016-12-23T04:19:02.810Z,0
2016-12-23T04:20:13.545Z,0
2016-12-23T04:21:24.266Z,0
2016-12-23T04:22:34.996Z,0
2016-12-23T04:23:45.716Z,0
2016-12-23T04:24:56.418Z,0
2016-12-23T04:26:07.143Z,0
2016-12-23T04:27:17.879Z,0
2016-12-23T04:28:28.600Z,0
2016-12-23T04:29:39.316Z,0
2016-12-23T04:30:50.048Z,0
2016-12-23T04:32:00.762Z,0
2016-12-23T04:33:11.480Z,0
2016-12-23T04:34:22.205Z,0
2016-12-23T04:35:32.947Z,0
2016-12-23T04:36:43.652Z,0
2016-12-23T04:37:54.385Z,0
2016-12-23T04:39:05.115Z,0
2016-12-23T04:40:15.810Z,0
2016-12-23T04:41:26.539Z,0
2016-12-23T04:42:37.276Z,0
2016-12-23T04:43:48.007Z,0
2016-12-23T04:44:58.748Z,0
2016-12-23T04:46:09.818Z,0
2016-12-23T04:47:20.527Z,0
2016-12-23T04:48:31.252Z,0
2016-12-23T04:49:41.999Z,0
2016-12-23T04:50:52.743Z,0
2016-12-23T04:52:03.461Z,0
2016-12-23T04:53:14.165Z,0
2016-12-23T04:54:24.863Z,0
2016-12-23T04:55:35.600Z,0
2016-12-23T04:56:46.333Z,0
2016-12-23T04:57:57.325Z,0
2016-12-23T04:59:08.056Z,0
2016-12-23T05:00:18.770Z,0
2016-12-23T05:01:29.793Z,0
2016-12-23T05:02:40.526Z,0
2016-12-23T05:03:51.232Z,0
2016-12-23T05:05:01.954Z,0
2016-12-23T05:06:12.692Z,0
2016-12-23T05:07:23.401Z,0
2016-12-23T05:08:34.134Z,0
2016-12-23T05:09:44.859Z,0
2016-12-23T05:10:55.584Z,0
2016-12-23T05:12:06.310Z,0
2016-12-23T05:13:17.051Z,0
2016-12-23T05:14:27.769Z,0
2016-12-23T05:15:38.492Z,0
2016-12-23T05:16:49.188Z,0
2016-12-23T05:17:59.923Z,0
2016-12-23T05:19:10.644Z,0
2016-12-23T05:20:21.358Z,0
2016-12-23T05:21:32.072Z,0
2016-12-23T05:22:42.795Z,0
2016-12-23T05:23:53.516Z,0
2016-12-23T05:25:04.278Z,0
2016-12-23T05:26:14.979Z,0
2016-12-23T05:27:25.723Z,0
2016-12-23T05:28:36.466Z,0
2016-12-23T05:29:47.509Z,0
2016-12-23T05:30:58.238Z,0
2016-12-23T05:32:08.953Z,0
2016-12-23T05:33:19.680Z,0
2016-12-23T05:34:30.400Z,0
2016-12-23T05:35:41.142Z,0
2016-12-23T05:36:51.864Z,0
2016-12-23T05:38:02.588Z,0
2016-12-23T05:39:13.327Z,0
2016-12-23T05:40:24.056Z,0
2016-12-23T05:41:34.756Z,0
2016-12-23T05:42:45.452Z,0
2016-12-23T05:43:56.146Z,0
2016-12-23T05:45:06.849Z,0
2016-12-23T05:46:17.578Z,0
2016-12-23T05:47:28.332Z,0
2016-12-23T05:48:39.053Z,0
2016-12-23T05:49:49.749Z,0
2016-12-23T05:51:00.445Z,0
2016-12-23T05:52:11.466Z,0
2016-12-23T05:53:22.192Z,0
2016-12-23T05:54:32.886Z,0
2016-12-23T05:55:43.583Z,0
2016-12-23T05:56:54.320Z,0
2016-12-23T05:58:05.038Z,0
2016-12-23T05:59:15.766Z,0
2016-12-23T06:00:26.492Z,0
2016-12-23T06:01:37.201Z,0
2016-12-23T06:02:47.924Z,0
2016-12-23T06:03:58.672Z,0
2016-12-23T06:05:09.715Z,0
2016-12-23T06:06:20.438Z,0
2016-12-23T06:07:31.148Z,0
2016-12-23T06:08:41.913Z,0
2016-12-23T06:09:52.639Z,0
2016-12-23T06:11:03.373Z,0
2016-12-23T06:12:14.091Z,0
2016-12-23T06:13:24.827Z,0
2016-12-23T06:14:35.549Z,0
2016-12-23T06:15:46.242Z,0
2016-12-23T06:16:56.977Z,0
2016-12-23T06:18:07.707Z,0
2016-12-23T06:19:18.445Z,0
2016-12-23T06:20:29.190Z,0
2016-12-23T06:21:39.892Z,0
2016-12-23T06:22:50.630Z,0
2016-12-23T06:24:01.351Z,0
2016-12-23T06:25:12.072Z,0
2016-12-23T06:26:22.775Z,0
2016-12-23T06:27:33.499Z,0
2016-12-23T06:28:44.193Z,0
2016-12-23T06:29:54.930Z,0
2016-12-23T06:31:05.634Z,0
2016-12-23T06:32:16.401Z,0
2016-12-23T06:33:27.105Z,0
2016-12-23T06:34:37.851Z,0
2016-12-23T06:35:48.573Z,0
2016-12-23T06:36:59.317Z,0
2016-12-23T06:38:10.054Z,0
2016-12-23T06:39:21.106Z,0
2016-12-23T06:40:31.859Z,0
2016-12-23T06:41:42.602Z,0
2016-12-23T06:42:53.323Z,0
2016-12-23T06:44:04.019Z,0
2016-12-23T06:45:14.720Z,0
2016-12-23T06:46:25.461Z,0
2016-12-23T06:47:36.196Z,0
2016-12-23T06:48:46.906Z,0
2016-12-23T06:49:57.638Z,0
2016-12-23T06:51:08.376Z,0
2016-12-23T06:52:19.113Z,0
2016-12-23T06:53:29.813Z,0
2016-12-23T06:54:40.551Z,0
2016-12-23T06:55:51.268Z,0
2016-12-23T06:57:02.004Z,0
2016-12-23T06:58:12.763Z,0
2016-12-23T06:59:23.474Z,0
2016-12-23T07:00:34.201Z,0
2016-12-23T07:01:44.914Z,5
2016-12-23T07:02:55.674Z,5
2016-12-23T07:04:06.419Z,5
2016-12-23T07:05:17.140Z,5
2016-12-23T07:06:27.911Z,5
2016-12-23T07:07:38.654Z,5
2016-12-23T07:08:49.385Z,5
2016-12-23T07:10:00.105Z,10
2016-12-23T07:11:10.845Z,10
2016-12-23T07:12:21.548Z,10
2016-12-23T07:13:32.287Z,10
2016-12-23T07:14:42.990Z,15
2016-12-23T07:15:53.700Z,15
2016-12-23T07:17:04.425Z,15
2016-12-23T07:18:15.129Z,15
2016-12-23T07:19:25.848Z,20
2016-12-23T07:20:36.547Z,20
2016-12-23T07:21:47.262Z,20
2016-12-23T07:22:58.029Z,20
2016-12-23T07:24:08.758Z,25
2016-12-23T07:25:19.480Z,25
2016-12-23T07:26:30.200Z,25
2016-12-23T07:27:40.919Z,30
2016-12-23T07:28:51.644Z,30
2016-12-23T07:30:02.351Z,35
2016-12-23T07:31:13.059Z,35
2016-12-23T07:32:23.780Z,35
2016-12-23T07:33:34.477Z,40
2016-12-23T07:34:45.195Z,40
2016-12-23T07:35:55.920Z,45
2016-12-23T07:37:06.611Z,45
2016-12-23T07:38:17.673Z,45
2016-12-23T07:39:28.406Z,50
2016-12-23T07:40:39.151Z,55
2016-12-23T07:41:49.854Z,55
2016-12-23T07:43:00.566Z,55
2016-12-23T07:44:11.291Z,55
2016-12-23T07:45:22.007Z,60
2016-12-23T07:46:32.756Z,65
2016-12-23T07:47:43.470Z,65
2016-12-23T07:48:54.217Z,70
2016-12-23T07:50:04.922Z,70
2016-12-23T07:51:15.641Z,70
2016-12-23T07:52:26.336Z,70
2016-12-23T07:53:37.061Z,80
2016-12-23T07:54:47.784Z,85
2016-12-23T07:55:58.517Z,90
2016-12-23T07:57:09.246Z,90
2016-12-23T07:58:19.968Z,90
2016-12-23T07:59:30.709Z,85
2016-12-23T08:00:41.458Z,90
2016-12-23T08:01:52.196Z,90
2016-12-23T08:03:02.928Z,95
2016-12-23T08:04:13.644Z,95
2016-12-23T08:05:24.367Z,90
2016-12-23T08:06:35.084Z,90
2016-12-23T08:07:45.785Z,90
2016-12-23T08:08:56.519Z,95
2016-12-23T08:10:07.250Z,95
2016-12-23T08:11:17.973Z,90
2016-12-23T08:12:28.672Z,90
2016-12-23T08:13:39.407Z,90
2016-12-23T08:14:50.132Z,95
2016-12-23T08:16:00.850Z,95
2016-12-23T08:17:11.617Z,95
2016-12-23T08:18:22.340Z,100
2016-12-23T08:19:33.084Z,100
2016-12-23T08:20:43.810Z,100
2016-12-23T08:21:54.511Z,105
2016-12-23T08:23:05.231Z,100
2016-12-23T08:24:15.929Z,105
2016-12-23T08:25:26.645Z,110
2016-12-23T08:26:37.371Z,120
2016-12-23T08:27:48.092Z,120
2016-12-23T08:28:58.824Z,125
2016-12-23T08:30:09.528Z,145
2016-12-23T08:31:20.224Z,150
2016-12-23T08:32:30.941Z,145
2016-12-23T08:33:41.708Z,155
2016-12-23T08:34:52.465Z,145
2016-12-23T08:36:03.463Z,150
2016-12-23T08:37:14.199Z,160
2016-12-23T08:38:24.924Z,130
2016-12-23T08:39:35.624Z,145
2016-12-23T08:40:46.391Z,150
2016-12-23T08:41:57.096Z,145
2016-12-23T08:43:07.826Z,125
2016-12-23T08:44:18.532Z,125
2016-12-23T08:45:29.268Z,140
2016-12-23T08:46:40.017Z,140
2016-12-23T08:47:50.734Z,145
2016-12-23T08:49:01.472Z,145
2016-12-23T08:50:12.192Z,115
2016-12-23T08:51:22.912Z,120
2016-12-23T08:52:33.646Z,120
2016-12-23T08:53:44.380Z,120
2016-12-23T08:54:55.403Z,120
2016-12-23T08:56:06.145Z,140
2016-12-23T08:57:16.860Z,170
2016-12-23T08:58:27.601Z,165
2016-12-23T08:59:38.335Z,170
2016-12-23T09:00:49.051Z,160
2016-12-23T09:01:59.774Z,165
2016-12-23T09:03:10.492Z,160
2016-12-23T09:04:21.211Z,160
2016-12-23T09:05:31.931Z,175
2016-12-23T09:06:42.654Z,165
2016-12-23T09:07:53.373Z,185
2016-12-23T09:09:04.094Z,185
2016-12-23T09:10:14.818Z,200
2016-12-23T09:11:25.557Z,230
2016-12-23T09:12:36.302Z,225
2016-12-23T09:13:47.032Z,230
2016-12-23T09:14:57.791Z,240
2016-12-23T09:16:08.520Z,240
2016-12-23T09:17:19.262Z,210
2016-12-23T09:18:30.004Z,210
2016-12-23T09:19:40.689Z,215
2016-12-23T09:20:51.420Z,190
2016-12-23T09:22:02.174Z,190
2016-12-23T09:23:12.913Z,195
2016-12-23T09:24:23.671Z,180
2016-12-23T09:25:34.390Z,180
2016-12-23T09:26:45.414Z,150
2016-12-23T09:27:56.154Z,155
2016-12-23T09:29:06.880Z,150
2016-12-23T09:30:17.626Z,200
2016-12-23T09:31:28.342Z,210
2016-12-23T09:32:39.394Z,200
2016-12-23T09:33:50.138Z,200
2016-12-23T09:35:00.857Z,175
2016-12-23T09:36:11.606Z,185
2016-12-23T09:37:22.328Z,195
2016-12-23T09:38:33.045Z,195
2016-12-23T09:39:43.771Z,200
2016-12-23T09:40:54.515Z,195
2016-12-23T09:42:05.228Z,140
2016-12-23T09:43:15.958Z,130
2016-12-23T09:44:26.701Z,150
2016-12-23T09:45:37.424Z,140
2016-12-23T09:46:48.147Z,130
2016-12-23T09:47:58.867Z,150
2016-12-23T09:49:09.580Z,135
2016-12-23T09:50:20.326Z,115
2016-12-23T09:51:31.379Z,145
2016-12-23T09:52:42.100Z,150
2016-12-23T09:53:52.797Z,155
2016-12-23T09:55:03.517Z,160
2016-12-23T09:56:14.227Z,185
2016-12-23T09:57:24.951Z,190
2016-12-23T09:58:35.656Z,190
2016-12-23T09:59:46.349Z,185
2016-12-23T10:00:57.088Z,200
2016-12-23T10:02:07.843Z,185
2016-12-23T10:03:18.560Z,140
2016-12-23T10:04:29.260Z,145
2016-12-23T10:05:39.998Z,165
2016-12-23T10:06:50.701Z,160
2016-12-23T10:08:01.436Z,165
2016-12-23T10:09:12.194Z,160
2016-12-23T10:10:22.928Z,155
2016-12-23T10:11:33.683Z,155
2016-12-23T10:12:44.403Z,150
2016-12-23T10:13:55.145Z,155
2016-12-23T10:15:05.846Z,165
2016-12-23T10:16:16.542Z,160
2016-12-23T10:17:27.268Z,155
2016-12-23T10:18:37.988Z,155
2016-12-23T10:19:48.722Z,135
2016-12-23T10:20:59.471Z,125
2016-12-23T10:22:10.214Z,120
2016-12-23T10:23:20.924Z,125
2016-12-23T10:24:31.644Z,140
2016-12-23T10:25:42.341Z,150
2016-12-23T10:26:53.062Z,140
2016-12-23T10:28:03.806Z,130
2016-12-23T10:29:14.532Z,120
2016-12-23T10:30:25.250Z,120
2016-12-23T10:31:35.982Z,130
2016-12-23T10:32:46.733Z,135
2016-12-23T10:33:57.457Z,140
2016-12-23T10:35:08.199Z,150
2016-12-23T10:36:18.928Z,145
2016-12-23T10:37:29.666Z,150
2016-12-23T10:38:40.369Z,150
2016-12-23T10:39:51.088Z,150
2016-12-23T10:41:02.130Z,150
2016-12-23T10:42:12.855Z,160
2016-12-23T10:43:23.557Z,175
2016-12-23T10:44:34.268Z,165
2016-12-23T10:45:44.979Z,175
2016-12-23T10:46:55.690Z,165
2016-12-23T10:48:06.438Z,170
2016-12-23T10:49:17.435Z,190
2016-12-23T10:50:28.169Z,185
2016-12-23T10:51:38.894Z,205
2016-12-23T10:52:49.625Z,195
2016-12-23T10:54:00.357Z,195
2016-12-23T10:55:11.079Z,180
2016-12-23T10:56:21.806Z,185
2016-12-23T10:57:32.545Z,180
2016-12-23T10:58:43.270Z,175
2016-12-23T10:59:53.977Z,160
2016-12-23T11:01:04.702Z,170
2016-12-23T11:02:15.437Z,175
2016-12-23T11:03:26.161Z,170
2016-12-23T11:04:36.885Z,180
2016-12-23T11:05:47.696Z,190
2016-12-23T11:06:58.417Z,185
2016-12-23T11:08:09.146Z,185
2016-12-23T11:09:19.888Z,185
2016-12-23T11:10:30.634Z,190
2016-12-23T11:11:41.388Z,170
2016-12-23T11:12:52.127Z,180
2016-12-23T11:14:02.851Z,175
2016-12-23T11:15:13.576Z,175
2016-12-23T11:16:24.311Z,200
2016-12-23T11:17:35.036Z,195
2016-12-23T11:18:45.761Z,175
2016-12-23T11:19:56.458Z,165
2016-12-23T11:21:07.519Z,170
2016-12-23T11:22:18.251Z,190
2016-12-23T11:23:28.994Z,185
2016-12-23T11:24:39.693Z,180
2016-12-23T11:25:50.429Z,180
2016-12-23T11:27:01.171Z,180
2016-12-23T11:28:11.896Z,165
2016-12-23T11:29:22.625Z,180
2016-12-23T11:30:33.349Z,165
2016-12-23T11:31:44.080Z,190
2016-12-23T11:32:54.818Z,200
2016-12-23T11:34:05.552Z,195
2016-12-23T11:35:16.269Z,195
2016-12-23T11:36:26.978Z,205
2016-12-23T11:37:37.696Z,215
2016-12-23T11:38:48.419Z,210
2016-12-23T11:39:59.139Z,215
2016-12-23T11:41:09.881Z,235
2016-12-23T11:42:20.602Z,250
2016-12-23T11:43:31.323Z,235
2016-12-23T11:44:42.072Z,220
2016-12-23T11:45:52.790Z,215
2016-12-23T11:47:03.488Z,235
2016-12-23T11:48:14.229Z,250
2016-12-23T11:49:25.249Z,230
2016-12-23T11:50:35.974Z,235
2016-12-23T11:51:46.742Z,225
2016-12-23T11:52:57.487Z,235
2016-12-23T11:54:08.194Z,220
2016-12-23T11:55:18.888Z,230
2016-12-23T11:56:29.650Z,225
2016-12-23T11:57:40.357Z,215
2016-12-23T11:58:51.128Z,225
2016-12-23T12:00:01.821Z,215
2016-12-23T12:01:12.517Z,205
2016-12-23T12:02:23.241Z,210
2016-12-23T12:03:33.960Z,210
2016-12-23T12:04:44.680Z,230
2016-12-23T12:05:55.415Z,230
2016-12-23T12:07:06.122Z,245
2016-12-23T12:08:17.144Z,240
2016-12-23T12:09:27.861Z,240
2016-12-23T12:10:38.583Z,245
2016-12-23T12:11:49.320Z,230
2016-12-23T12:13:00.070Z,215
2016-12-23T12:14:10.795Z,215
2016-12-23T12:15:21.496Z,230
2016-12-23T12:16:32.264Z,240
2016-12-23T12:17:43.035Z,235
2016-12-23T12:18:53.757Z,230
2016-12-23T12:20:04.475Z,235
2016-12-23T12:21:15.214Z,245
2016-12-23T12:22:25.951Z,220
2016-12-23T12:23:36.707Z,215
2016-12-23T12:24:47.427Z,220
2016-12-23T12:25:58.160Z,215
2016-12-23T12:27:08.893Z,205
2016-12-23T12:28:19.632Z,215
2016-12-23T12:29:30.397Z,235
2016-12-23T12:30:41.114Z,225
2016-12-23T12:31:51.856Z,215
2016-12-23T12:33:02.584Z,210
2016-12-23T12:34:13.295Z,210
2016-12-23T12:35:24.023Z,205
2016-12-23T12:36:34.764Z,190
2016-12-23T12:37:45.507Z,190
2016-12-23T12:38:56.236Z,195
2016-12-23T12:40:06.950Z,195
2016-12-23T12:41:17.699Z,190
2016-12-23T12:42:28.445Z,190
2016-12-23T12:43:39.176Z,185
2016-12-23T12:44:49.912Z,165
2016-12-23T12:46:00.941Z,150
2016-12-23T12:47:11.676Z,170
2016-12-23T12:48:22.425Z,180
2016-12-23T12:49:33.168Z,170
2016-12-23T12:50:43.873Z,170
2016-12-23T12:51:54.609Z,170
2016-12-23T12:53:05.355Z,155
2016-12-23T12:54:16.060Z,140
2016-12-23T12:55:26.780Z,150
2016-12-23T12:56:37.504Z,145
2016-12-23T12:57:48.251Z,140
2016-12-23T12:58:58.985Z,135
2016-12-23T13:00:09.724Z,140
2016-12-23T13:01:20.481Z,150
2016-12-23T13:02:31.228Z,135
2016-12-23T13:03:42.248Z,125
2016-12-23T13:04:52.955Z,120
2016-12-23T13:06:03.689Z,130
2016-12-23T13:07:14.710Z,125
2016-12-23T13:08:25.436Z,115
2016-12-23T13:09:36.157Z,120
2016-12-23T13:10:46.857Z,130
2016-12-23T13:11:57.576Z,120
2016-12-23T13:13:08.295Z,120
2016-12-23T13:14:19.037Z,120
2016-12-23T13:15:29.742Z,115
2016-12-23T13:16:40.478Z,110
2016-12-23T13:17:51.204Z,110
2016-12-23T13:19:01.967Z,110
2016-12-23T13:20:12.670Z,105
2016-12-23T13:21:23.393Z,105
2016-12-23T13:22:34.117Z,100
2016-12-23T13:23:44.843Z,100
2016-12-23T13:24:55.596Z,90
2016-12-23T13:26:06.355Z,80
2016-12-23T13:27:17.078Z,90
2016-12-23T13:28:27.810Z,95
2016-12-23T13:29:38.519Z,85
2016-12-23T13:30:49.239Z,70
2016-12-23T13:31:59.981Z,85
2016-12-23T13:33:10.726Z,90
2016-12-23T13:34:21.465Z,75
2016-12-23T13:35:32.212Z,75
2016-12-23T13:36:42.964Z,75
2016-12-23T13:37:53.703Z,75
2016-12-23T13:39:04.413Z,75
2016-12-23T13:40:15.137Z,75
2016-12-23T13:41:25.877Z,75
2016-12-23T13:42:36.600Z,70
2016-12-23T13:43:47.312Z,70
2016-12-23T13:44:58.039Z,75
2016-12-23T13:46:08.762Z,75
2016-12-23T13:47:19.478Z,80
2016-12-23T13:48:30.203Z,75
2016-12-23T13:49:40.942Z,80
2016-12-23T13:50:51.668Z,80
2016-12-23T13:52:02.391Z,70
2016-12-23T13:53:13.092Z,75
2016-12-23T13:54:23.847Z,75
2016-12-23T13:55:34.582Z,75
2016-12-23T13:56:45.339Z,75
2016-12-23T13:57:56.046Z,70
2016-12-23T13:59:06.743Z,65
2016-12-23T14:00:17.456Z,65
2016-12-23T14:01:28.248Z,65
2016-12-23T14:02:38.972Z,70
2016-12-23T14:03:49.702Z,65
2016-12-23T14:05:00.440Z,65
2016-12-23T14:06:11.182Z,65
2016-12-23T14:07:21.936Z,65
2016-12-23T14:08:32.663Z,60
2016-12-23T14:09:43.399Z,55
2016-12-23T14:10:54.128Z,60
2016-12-23T14:12:04.854Z,60
2016-12-23T14:13:15.583Z,60
2016-12-23T14:14:26.313Z,55
2016-12-23T14:15:37.028Z,50
2016-12-23T14:16:47.728Z,50
2016-12-23T14:17:58.455Z,50
2016-12-23T14:19:09.495Z,50
2016-12-23T14:20:20.233Z,50
2016-12-23T14:21:30.983Z,50
2016-12-23T14:22:41.729Z,50
2016-12-23T14:23:52.434Z,50
2016-12-23T14:25:03.154Z,45
2016-12-23T14:26:13.873Z,45
2016-12-23T14:27:24.597Z,45
2016-12-23T14:28:35.318Z,40
2016-12-23T14:29:46.052Z,35
2016-12-23T14:31:17.433Z,35
2016-12-23T14:32:28.150Z,30
2016-12-23T14:33:38.863Z,30
2016-12-23T14:34:49.610Z,25
2016-12-23T14:36:00.331Z,20
2016-12-23T14:37:11.359Z,20
2016-12-23T14:38:22.081Z,20
2016-12-23T14:39:32.822Z,20
2016-12-23T14:40:43.564Z,15
2016-12-23T14:41:54.310Z,15
2016-12-23T14:43:05.035Z,15
2016-12-23T14:44:15.778Z,10
2016-12-23T14:45:26.505Z,10
2016-12-23T14:46:37.279Z,10
2016-12-23T14:47:48.015Z,10
2016-12-23T14:48:58.761Z,10
2016-12-23T14:50:09.482Z,5
2016-12-23T14:51:20.240Z,5
2016-12-23T14:52:30.964Z,5
2016-12-23T14:53:41.708Z,5
2016-12-23T14:54:52.416Z,5
2016-12-23T14:56:03.153Z,5
2016-12-23T14:57:13.866Z,5
2016-12-23T14:58:24.606Z,5
2016-12-23T14:59:35.649Z,0
2016-12-23T15:00:46.382Z,0
2016-12-23T15:01:57.102Z,0
2016-12-23T15:03:07.823Z,0
2016-12-23T15:04:18.557Z,0
2016-12-23T15:05:29.287Z,0
2016-12-23T15:06:40.000Z,0
2016-12-23T15:07:50.728Z,0
2016-12-23T15:09:01.452Z,0
2016-12-23T15:10:12.174Z,0
2016-12-23T15:11:22.896Z,0
2016-12-23T15:12:33.617Z,0
2016-12-23T15:13:44.382Z,0
2016-12-23T15:14:55.108Z,0
2016-12-23T15:16:05.828Z,0
2016-12-23T15:17:16.566Z,0
2016-12-23T15:18:27.295Z,0
2016-12-23T15:19:38.012Z,0
2016-12-23T15:20:48.734Z,0
2016-12-23T15:21:59.459Z,0
2016-12-23T15:23:10.231Z,0
2016-12-23T15:24:20.955Z,0
2016-12-23T15:25:31.663Z,0
2016-12-23T15:26:42.410Z,0
2016-12-23T15:27:53.134Z,0
2016-12-23T15:29:03.872Z,0
2016-12-23T15:30:14.929Z,0
2016-12-23T15:31:25.654Z,0
2016-12-23T15:32:36.374Z,0
2016-12-23T15:33:47.097Z,0
2016-12-23T15:34:57.818Z,0
2016-12-23T15:36:08.583Z,0
2016-12-23T15:37:19.303Z,0
2016-12-23T15:38:30.020Z,0
2016-12-23T15:39:40.766Z,0
2016-12-23T15:40:51.515Z,0
2016-12-23T15:42:02.240Z,0
2016-12-23T15:43:12.961Z,0
2016-12-23T15:44:23.686Z,0
2016-12-23T15:45:34.399Z,0
2016-12-23T15:46:45.120Z,0
2016-12-23T15:47:55.821Z,0
2016-12-23T15:49:06.534Z,0
2016-12-23T15:50:17.258Z,0
2016-12-23T15:51:27.983Z,0
2016-12-23T15:52:38.727Z,0
2016-12-23T15:53:49.447Z,0
2016-12-23T15:55:00.188Z,0
2016-12-23T15:56:10.914Z,0
2016-12-23T15:57:21.653Z,0
2016-12-23T15:58:32.698Z,0
2016-12-23T15:59:43.410Z,0
2016-12-23T16:00:54.148Z,0
2016-12-23T16:02:04.864Z,0
2016-12-23T16:03:15.610Z,0
2016-12-23T16:04:26.364Z,0
2016-12-23T16:05:37.077Z,0
2016-12-23T16:06:47.798Z,0
2016-12-23T16:07:58.523Z,0
2016-12-23T16:09:09.562Z,0
2016-12-23T16:10:20.290Z,0
2016-12-23T16:11:31.011Z,0
2016-12-23T16:12:41.712Z,0
2016-12-23T16:13:52.475Z,0
2016-12-23T16:15:03.200Z,0
2016-12-23T16:16:13.905Z,0
2016-12-23T16:17:24.662Z,0
2016-12-23T16:18:35.383Z,0
2016-12-23T16:19:46.084Z,0
2016-12-23T16:20:56.808Z,0
2016-12-23T16:22:07.546Z,0
2016-12-23T16:23:18.272Z,0
2016-12-23T16:24:28.993Z,0
2016-12-23T16:25:39.694Z,0
2016-12-23T16:26:50.398Z,0
2016-12-23T16:28:01.153Z,0
2016-12-23T16:29:11.923Z,0
2016-12-23T16:30:22.673Z,0
2016-12-23T16:31:33.403Z,0
2016-12-23T16:32:44.461Z,0
2016-12-23T16:33:55.203Z,0
2016-12-23T16:35:06.228Z,0
2016-12-23T16:36:17.272Z,0
2016-12-23T16:37:27.982Z,0
2016-12-23T16:38:38.695Z,0
2016-12-23T16:39:49.425Z,0
2016-12-23T16:41:00.137Z,0
2016-12-23T16:42:11.187Z,0
2016-12-23T16:43:21.910Z,0
2016-12-23T16:44:32.625Z,0
2016-12-23T16:45:43.375Z,0
2016-12-23T16:46:54.110Z,0
2016-12-23T16:48:04.860Z,0
2016-12-23T16:49:15.560Z,0
2016-12-23T16:50:26.297Z,0
2016-12-23T16:51:37.019Z,0
2016-12-23T16:52:47.764Z,0
2016-12-23T16:53:58.485Z,0
2016-12-23T16:55:09.242Z,0
2016-12-23T16:56:19.965Z,0
2016-12-23T16:57:30.700Z,0
2016-12-23T16:58:41.428Z,0